Hlavní strana
METAR-TAF:

METAR-TAF

Letiště :

Majuro, Marshallovy ostrovy

zeměpisná šířka: 07-04N, zeměpisná délka: 171-17E, výška: 2 m

Aktuální stav počasí

Zpráva byla vytvořena před 10 hodinami a 41 minutami, v 22:55 UTC
Východoseverovýchodní vítr 12 kt
Teplota 29°C
Vlhkost vzduchu 79%
Tlak 1009 hPa
Viditelnost: 24.1 km
Skoro jasno ve výšce 1500 ft
Polojasno ve výšce 5000 ft
Oblačno až skoro zataženo ve výšce 12000 ft
Zataženo ve výšce 30000 ft

METAR: PKMJ 152255Z 06012KT 15SM FEW015 SCT050 BKN120 OVC300 29/25 A2981 RMK LAST

Čas: 21:36 (09:36 UTC)

Předpověď počasí

Zpráva byla vytvořena před 3 hodinami a 57 minutami, v 05:39 UTC
Předpověď platná od 16 v 06 UTC do 17 v 06 UTC
Východní vítr 15 kt
Viditelnost: 10 km
Polojasno ve výšce 1500 ft
Oblačno až skoro zataženo ve výšce 5000 ft
Oblačno až skoro zataženo ve výšce 12000 ft
přeháňky v blízkosti

TAF: PKMJ 160539Z 1606/1706 08015KT P6SM VCSH SCT015 BKN050 BKN120

Stav a předpovědi počasí z více než 4 000 letišť (zprávy METAR a TAF).

Červené a žluté tečky na mapě představují dostupné meteorologické stanice.

Když kurzor umístíte na tečku, zobrazí se název stanice.

Pak kliknutím zobrazíte stav a předpověď počasí.

Chcete-li změnit mapu, kliknutím na zelené tlačítko se znaménkem +mapu přiblížíte, kliknutím na zelené tlačítko se znaménkem – mapu oddálíte a kliknutím na zelené šipky přejdete na sousední mapy.


METAR-TAF: